sensor_id;sensor_type;location;lat;lon;timestamp;temperature;humidity
20174;DHT22;10246;50.620;7.232;2023-05-10T00:00:30;15.20;24.20
20174;DHT22;10246;50.620;7.232;2023-05-10T00:03:02;15.20;24.30
20174;DHT22;10246;50.620;7.232;2023-05-10T00:05:30;15.20;25.00
20174;DHT22;10246;50.620;7.232;2023-05-10T00:07:58;15.10;24.50
20174;DHT22;10246;50.620;7.232;2023-05-10T00:10:25;15.10;25.00
20174;DHT22;10246;50.620;7.232;2023-05-10T00:12:53;15.10;24.80
20174;DHT22;10246;50.620;7.232;2023-05-10T00:15:22;15.20;24.80
20174;DHT22;10246;50.620;7.232;2023-05-10T00:17:49;15.20;25.00
20174;DHT22;10246;50.620;7.232;2023-05-10T00:20:23;15.20;25.10
20174;DHT22;10246;50.620;7.232;2023-05-10T00:22:50;15.20;24.90
20174;DHT22;10246;50.620;7.232;2023-05-10T00:25:16;15.20;24.60
20174;DHT22;10246;50.620;7.232;2023-05-10T00:27:49;15.10;24.80
20174;DHT22;10246;50.620;7.232;2023-05-10T00:30:17;15.00;24.90
20174;DHT22;10246;50.620;7.232;2023-05-10T00:32:47;15.00;24.90
20174;DHT22;10246;50.620;7.232;2023-05-10T00:35:21;15.00;25.30
20174;DHT22;10246;50.620;7.232;2023-05-10T00:37:48;15.00;25.60
20174;DHT22;10246;50.620;7.232;2023-05-10T00:40:17;15.00;25.90
20174;DHT22;10246;50.620;7.232;2023-05-10T00:42:43;15.00;25.70
20174;DHT22;10246;50.620;7.232;2023-05-10T00:45:12;15.00;25.20
20174;DHT22;10246;50.620;7.232;2023-05-10T00:47:40;15.00;25.50
20174;DHT22;10246;50.620;7.232;2023-05-10T00:50:09;15.00;25.30
20174;DHT22;10246;50.620;7.232;2023-05-10T00:52:38;15.00;24.70
20174;DHT22;10246;50.620;7.232;2023-05-10T00:55:07;15.10;25.00
20174;DHT22;10246;50.620;7.232;2023-05-10T00:57:36;15.00;24.50
20174;DHT22;10246;50.620;7.232;2023-05-10T01:00:04;15.00;24.50
20174;DHT22;10246;50.620;7.232;2023-05-10T01:02:33;14.90;24.50
20174;DHT22;10246;50.620;7.232;2023-05-10T01:05:02;14.90;24.60
20174;DHT22;10246;50.620;7.232;2023-05-10T01:07:31;14.90;25.00
20174;DHT22;10246;50.620;7.232;2023-05-10T01:10:11;14.80;25.30
20174;DHT22;10246;50.620;7.232;2023-05-10T01:12:42;14.80;25.30
20174;DHT22;10246;50.620;7.232;2023-05-10T01:15:10;14.80;24.40
20174;DHT22;10246;50.620;7.232;2023-05-10T01:17:42;14.90;24.90
20174;DHT22;10246;50.620;7.232;2023-05-10T01:20:11;14.90;24.90
20174;DHT22;10246;50.620;7.232;2023-05-10T01:26:00;14.80;25.30
20174;DHT22;10246;50.620;7.232;2023-05-10T01:32:08;14.80;25.70
20174;DHT22;10246;50.620;7.232;2023-05-10T01:34:44;14.80;25.70
20174;DHT22;10246;50.620;7.232;2023-05-10T01:37:28;14.80;26.30
20174;DHT22;10246;50.620;7.232;2023-05-10T01:40:01;14.80;26.40
20174;DHT22;10246;50.620;7.232;2023-05-10T01:42:37;14.80;26.90
20174;DHT22;10246;50.620;7.232;2023-05-10T01:45:13;14.80;26.70
20174;DHT22;10246;50.620;7.232;2023-05-10T01:47:44;14.80;26.60
20174;DHT22;10246;50.620;7.232;2023-05-10T01:50:18;14.80;26.60
20174;DHT22;10246;50.620;7.232;2023-05-10T01:52:49;14.80;25.70
20174;DHT22;10246;50.620;7.232;2023-05-10T01:55:28;14.80;24.90
20174;DHT22;10246;50.620;7.232;2023-05-10T01:58:02;14.80;24.60
20174;DHT22;10246;50.620;7.232;2023-05-10T02:00:32;14.80;25.20
20174;DHT22;10246;50.620;7.232;2023-05-10T02:03:06;14.80;25.50
20174;DHT22;10246;50.620;7.232;2023-05-10T02:05:39;14.70;25.10
20174;DHT22;10246;50.620;7.232;2023-05-10T02:08:08;14.70;25.40
20174;DHT22;10246;50.620;7.232;2023-05-10T02:10:36;14.60;25.20
20174;DHT22;10246;50.620;7.232;2023-05-10T02:13:05;14.60;25.40
20174;DHT22;10246;50.620;7.232;2023-05-10T02:15:34;14.60;25.90
20174;DHT22;10246;50.620;7.232;2023-05-10T02:18:10;14.60;26.20
20174;DHT22;10246;50.620;7.232;2023-05-10T02:20:41;14.60;26.50
20174;DHT22;10246;50.620;7.232;2023-05-10T02:23:11;14.60;27.20
20174;DHT22;10246;50.620;7.232;2023-05-10T02:25:41;14.70;27.70
20174;DHT22;10246;50.620;7.232;2023-05-10T02:35:00;14.80;27.70
20174;DHT22;10246;50.620;7.232;2023-05-10T02:37:33;14.70;26.60
20174;DHT22;10246;50.620;7.232;2023-05-10T02:40:05;14.80;27.00
20174;DHT22;10246;50.620;7.232;2023-05-10T02:45:55;14.90;25.60
20174;DHT22;10246;50.620;7.232;2023-05-10T02:48:44;14.80;25.00
20174;DHT22;10246;50.620;7.232;2023-05-10T02:51:16;14.80;25.90
20174;DHT22;10246;50.620;7.232;2023-05-10T02:53:49;14.80;26.10
20174;DHT22;10246;50.620;7.232;2023-05-10T02:56:25;14.80;26.40
20174;DHT22;10246;50.620;7.232;2023-05-10T02:58:55;14.80;26.30
20174;DHT22;10246;50.620;7.232;2023-05-10T03:01:27;14.70;26.00
20174;DHT22;10246;50.620;7.232;2023-05-10T03:03:56;14.70;26.20
20174;DHT22;10246;50.620;7.232;2023-05-10T03:06:27;14.70;26.20
20174;DHT22;10246;50.620;7.232;2023-05-10T03:08:59;14.70;26.00
20174;DHT22;10246;50.620;7.232;2023-05-10T03:11:37;14.70;26.70
20174;DHT22;10246;50.620;7.232;2023-05-10T03:14:12;14.70;26.30
20174;DHT22;10246;50.620;7.232;2023-05-10T03:16:45;14.60;26.60
20174;DHT22;10246;50.620;7.232;2023-05-10T03:19:18;14.70;26.50
20174;DHT22;10246;50.620;7.232;2023-05-10T03:21:59;14.60;26.60
20174;DHT22;10246;50.620;7.232;2023-05-10T03:24:27;14.60;26.50
20174;DHT22;10246;50.620;7.232;2023-05-10T03:26:59;14.60;26.70
20174;DHT22;10246;50.620;7.232;2023-05-10T03:29:31;14.60;26.50
20174;DHT22;10246;50.620;7.232;2023-05-10T03:31:59;14.60;26.60
20174;DHT22;10246;50.620;7.232;2023-05-10T03:34:33;14.60;26.20
20174;DHT22;10246;50.620;7.232;2023-05-10T03:37:04;14.60;26.40
20174;DHT22;10246;50.620;7.232;2023-05-10T03:39:33;14.60;26.60
20174;DHT22;10246;50.620;7.232;2023-05-10T03:42:00;14.60;26.50
20174;DHT22;10246;50.620;7.232;2023-05-10T03:44:31;14.60;26.40
20174;DHT22;10246;50.620;7.232;2023-05-10T03:46:59;14.60;26.30
20174;DHT22;10246;50.620;7.232;2023-05-10T03:49:26;14.60;26.50
20174;DHT22;10246;50.620;7.232;2023-05-10T03:51:54;14.70;26.20
20174;DHT22;10246;50.620;7.232;2023-05-10T03:54:25;14.60;25.90
20174;DHT22;10246;50.620;7.232;2023-05-10T03:56:57;14.70;25.80
20174;DHT22;10246;50.620;7.232;2023-05-10T03:59:27;14.60;25.80
20174;DHT22;10246;50.620;7.232;2023-05-10T04:01:56;14.60;26.60
20174;DHT22;10246;50.620;7.232;2023-05-10T04:04:25;14.60;27.20
20174;DHT22;10246;50.620;7.232;2023-05-10T04:06:59;14.60;27.90
20174;DHT22;10246;50.620;7.232;2023-05-10T04:09:27;14.60;27.70
20174;DHT22;10246;50.620;7.232;2023-05-10T04:11:55;14.60;27.90
20174;DHT22;10246;50.620;7.232;2023-05-10T04:14:28;14.60;27.80
20174;DHT22;10246;50.620;7.232;2023-05-10T04:16:59;14.60;27.80
20174;DHT22;10246;50.620;7.232;2023-05-10T04:19:32;14.60;28.00
20174;DHT22;10246;50.620;7.232;2023-05-10T04:22:12;14.70;28.60
20174;DHT22;10246;50.620;7.232;2023-05-10T04:24:40;14.60;28.40
20174;DHT22;10246;50.620;7.232;2023-05-10T04:27:08;14.60;28.50
20174;DHT22;10246;50.620;7.232;2023-05-10T04:29:35;14.60;28.50
20174;DHT22;10246;50.620;7.232;2023-05-10T04:32:03;14.60;28.00
20174;DHT22;10246;50.620;7.232;2023-05-10T04:34:33;14.50;28.70
20174;DHT22;10246;50.620;7.232;2023-05-10T04:37:03;14.50;28.70
20174;DHT22;10246;50.620;7.232;2023-05-10T04:39:29;14.50;28.50
20174;DHT22;10246;50.620;7.232;2023-05-10T04:41:58;14.50;28.50
20174;DHT22;10246;50.620;7.232;2023-05-10T04:44:24;14.50;28.40
20174;DHT22;10246;50.620;7.232;2023-05-10T04:46:51;14.50;29.20
20174;DHT22;10246;50.620;7.232;2023-05-10T04:49:18;14.50;29.60
20174;DHT22;10246;50.620;7.232;2023-05-10T04:51:45;14.50;29.70
20174;DHT22;10246;50.620;7.232;2023-05-10T04:54:12;14.60;30.00
20174;DHT22;10246;50.620;7.232;2023-05-10T04:56:39;14.60;30.30
20174;DHT22;10246;50.620;7.232;2023-05-10T04:59:07;14.60;30.30
20174;DHT22;10246;50.620;7.232;2023-05-10T05:01:34;14.60;30.00
20174;DHT22;10246;50.620;7.232;2023-05-10T05:04:01;14.70;29.80
20174;DHT22;10246;50.620;7.232;2023-05-10T05:06:27;14.70;29.60
20174;DHT22;10246;50.620;7.232;2023-05-10T05:08:54;14.70;29.40
20174;DHT22;10246;50.620;7.232;2023-05-10T05:11:21;14.70;29.40
20174;DHT22;10246;50.620;7.232;2023-05-10T05:13:48;14.70;29.40
20174;DHT22;10246;50.620;7.232;2023-05-10T05:16:16;14.70;29.00
20174;DHT22;10246;50.620;7.232;2023-05-10T05:18:45;14.80;28.70
20174;DHT22;10246;50.620;7.232;2023-05-10T05:21:15;14.80;28.90
20174;DHT22;10246;50.620;7.232;2023-05-10T05:23:42;14.80;29.10
20174;DHT22;10246;50.620;7.232;2023-05-10T05:26:09;14.80;28.60
20174;DHT22;10246;50.620;7.232;2023-05-10T05:28:36;14.90;28.70
20174;DHT22;10246;50.620;7.232;2023-05-10T05:31:03;14.90;28.70
20174;DHT22;10246;50.620;7.232;2023-05-10T05:33:32;15.00;28.80
20174;DHT22;10246;50.620;7.232;2023-05-10T05:36:00;15.00;29.10
20174;DHT22;10246;50.620;7.232;2023-05-10T05:38:27;15.00;28.40
20174;DHT22;10246;50.620;7.232;2023-05-10T05:40:54;15.00;28.80
20174;DHT22;10246;50.620;7.232;2023-05-10T05:43:21;15.10;28.80
20174;DHT22;10246;50.620;7.232;2023-05-10T05:45:47;15.00;28.80
20174;DHT22;10246;50.620;7.232;2023-05-10T05:48:14;15.10;28.90
20174;DHT22;10246;50.620;7.232;2023-05-10T05:50:42;15.00;28.10
20174;DHT22;10246;50.620;7.232;2023-05-10T05:53:09;15.00;28.60
20174;DHT22;10246;50.620;7.232;2023-05-10T05:55:39;15.10;28.80
20174;DHT22;10246;50.620;7.232;2023-05-10T05:58:05;15.10;28.80
20174;DHT22;10246;50.620;7.232;2023-05-10T06:00:35;15.10;28.00
20174;DHT22;10246;50.620;7.232;2023-05-10T06:03:02;15.10;27.80
20174;DHT22;10246;50.620;7.232;2023-05-10T06:05:30;15.20;28.00
20174;DHT22;10246;50.620;7.232;2023-05-10T06:07:59;15.20;27.90
20174;DHT22;10246;50.620;7.232;2023-05-10T06:10:26;15.20;27.60
20174;DHT22;10246;50.620;7.232;2023-05-10T06:12:53;15.20;27.30
20174;DHT22;10246;50.620;7.232;2023-05-10T06:15:19;15.20;26.90
20174;DHT22;10246;50.620;7.232;2023-05-10T06:17:46;15.20;27.50
20174;DHT22;10246;50.620;7.232;2023-05-10T06:20:14;15.20;27.10
20174;DHT22;10246;50.620;7.232;2023-05-10T06:22:41;15.30;26.90
20174;DHT22;10246;50.620;7.232;2023-05-10T06:25:18;15.40;25.50
20174;DHT22;10246;50.620;7.232;2023-05-10T06:27:45;15.30;24.20
20174;DHT22;10246;50.620;7.232;2023-05-10T06:30:13;15.40;24.80
20174;DHT22;10246;50.620;7.232;2023-05-10T06:32:41;15.40;24.40
20174;DHT22;10246;50.620;7.232;2023-05-10T06:35:09;15.40;25.30
20174;DHT22;10246;50.620;7.232;2023-05-10T06:37:36;15.50;26.10
20174;DHT22;10246;50.620;7.232;2023-05-10T06:40:03;15.50;25.10
20174;DHT22;10246;50.620;7.232;2023-05-10T06:42:31;15.60;24.20
20174;DHT22;10246;50.620;7.232;2023-05-10T06:44:58;15.60;23.10
20174;DHT22;10246;50.620;7.232;2023-05-10T06:47:25;15.70;22.20
20174;DHT22;10246;50.620;7.232;2023-05-10T06:49:52;15.70;22.50
20174;DHT22;10246;50.620;7.232;2023-05-10T06:52:20;15.80;22.40
20174;DHT22;10246;50.620;7.232;2023-05-10T06:54:49;15.80;22.40
20174;DHT22;10246;50.620;7.232;2023-05-10T06:57:17;15.90;23.50
20174;DHT22;10246;50.620;7.232;2023-05-10T06:59:46;15.90;23.20
20174;DHT22;10246;50.620;7.232;2023-05-10T07:02:13;16.00;22.20
20174;DHT22;10246;50.620;7.232;2023-05-10T07:04:40;16.10;21.40
20174;DHT22;10246;50.620;7.232;2023-05-10T07:07:07;16.10;19.20
20174;DHT22;10246;50.620;7.232;2023-05-10T07:09:33;16.00;19.10
20174;DHT22;10246;50.620;7.232;2023-05-10T07:12:00;16.00;19.90
20174;DHT22;10246;50.620;7.232;2023-05-10T07:14:28;15.90;20.80
20174;DHT22;10246;50.620;7.232;2023-05-10T07:16:56;16.00;21.30
20174;DHT22;10246;50.620;7.232;2023-05-10T07:19:23;16.10;20.50
20174;DHT22;10246;50.620;7.232;2023-05-10T07:21:49;16.10;20.50
20174;DHT22;10246;50.620;7.232;2023-05-10T07:24:17;16.00;21.50
20174;DHT22;10246;50.620;7.232;2023-05-10T07:26:44;16.00;22.90
20174;DHT22;10246;50.620;7.232;2023-05-10T07:29:13;16.00;22.30
20174;DHT22;10246;50.620;7.232;2023-05-10T07:31:40;16.00;24.00
20174;DHT22;10246;50.620;7.232;2023-05-10T07:34:11;16.00;24.30
20174;DHT22;10246;50.620;7.232;2023-05-10T07:36:41;15.90;24.90
20174;DHT22;10246;50.620;7.232;2023-05-10T07:39:10;16.00;24.70
20174;DHT22;10246;50.620;7.232;2023-05-10T07:41:37;15.90;25.10
20174;DHT22;10246;50.620;7.232;2023-05-10T07:44:04;15.90;25.80
20174;DHT22;10246;50.620;7.232;2023-05-10T07:46:31;15.90;25.60
20174;DHT22;10246;50.620;7.232;2023-05-10T07:48:57;15.80;24.10
20174;DHT22;10246;50.620;7.232;2023-05-10T07:51:26;15.80;26.30
20174;DHT22;10246;50.620;7.232;2023-05-10T07:53:53;15.90;27.30
20174;DHT22;10246;50.620;7.232;2023-05-10T07:56:24;15.90;28.10
20174;DHT22;10246;50.620;7.232;2023-05-10T07:58:53;16.00;27.90
20174;DHT22;10246;50.620;7.232;2023-05-10T08:01:20;16.00;26.90
20174;DHT22;10246;50.620;7.232;2023-05-10T08:03:47;16.00;26.30
20174;DHT22;10246;50.620;7.232;2023-05-10T08:06:14;15.90;25.50
20174;DHT22;10246;50.620;7.232;2023-05-10T08:08:42;16.00;26.60
20174;DHT22;10246;50.620;7.232;2023-05-10T08:11:11;15.90;27.00
20174;DHT22;10246;50.620;7.232;2023-05-10T08:13:37;16.00;27.10
20174;DHT22;10246;50.620;7.232;2023-05-10T08:16:04;16.00;26.20
20174;DHT22;10246;50.620;7.232;2023-05-10T08:18:31;16.00;26.10
20174;DHT22;10246;50.620;7.232;2023-05-10T08:20:58;16.00;25.50
20174;DHT22;10246;50.620;7.232;2023-05-10T08:23:24;16.10;25.60
20174;DHT22;10246;50.620;7.232;2023-05-10T08:25:52;16.10;24.90
20174;DHT22;10246;50.620;7.232;2023-05-10T08:28:19;16.10;25.10
20174;DHT22;10246;50.620;7.232;2023-05-10T08:30:46;16.00;25.20
20174;DHT22;10246;50.620;7.232;2023-05-10T08:33:13;16.00;25.20
20174;DHT22;10246;50.620;7.232;2023-05-10T08:35:39;16.00;24.30
20174;DHT22;10246;50.620;7.232;2023-05-10T08:38:06;16.00;24.30
20174;DHT22;10246;50.620;7.232;2023-05-10T08:40:33;15.90;24.70
20174;DHT22;10246;50.620;7.232;2023-05-10T08:43:05;16.00;25.10
20174;DHT22;10246;50.620;7.232;2023-05-10T08:45:39;15.90;25.00
20174;DHT22;10246;50.620;7.232;2023-05-10T08:48:08;16.00;25.30
20174;DHT22;10246;50.620;7.232;2023-05-10T08:50:36;16.00;25.00
20174;DHT22;10246;50.620;7.232;2023-05-10T08:53:06;15.90;24.10
20174;DHT22;10246;50.620;7.232;2023-05-10T08:55:34;16.00;24.40
20174;DHT22;10246;50.620;7.232;2023-05-10T08:58:06;16.00;25.00
20174;DHT22;10246;50.620;7.232;2023-05-10T09:00:33;16.10;25.30
20174;DHT22;10246;50.620;7.232;2023-05-10T09:03:01;16.10;25.10
20174;DHT22;10246;50.620;7.232;2023-05-10T09:05:28;16.20;26.30
20174;DHT22;10246;50.620;7.232;2023-05-10T09:07:55;16.20;24.90
20174;DHT22;10246;50.620;7.232;2023-05-10T09:10:23;16.10;24.10
20174;DHT22;10246;50.620;7.232;2023-05-10T09:12:53;16.30;23.90
20174;DHT22;10246;50.620;7.232;2023-05-10T09:15:23;16.10;19.10
20174;DHT22;10246;50.620;7.232;2023-05-10T09:17:50;15.90;18.70
20174;DHT22;10246;50.620;7.232;2023-05-10T09:20:17;15.70;16.00
20174;DHT22;10246;50.620;7.232;2023-05-10T09:22:45;15.60;18.90
20174;DHT22;10246;50.620;7.232;2023-05-10T09:25:13;15.60;19.60
20174;DHT22;10246;50.620;7.232;2023-05-10T09:27:43;15.60;16.40
20174;DHT22;10246;50.620;7.232;2023-05-10T09:30:17;15.50;17.00
20174;DHT22;10246;50.620;7.232;2023-05-10T09:32:48;15.40;20.10
20174;DHT22;10246;50.620;7.232;2023-05-10T09:35:19;15.40;20.40
20174;DHT22;10246;50.620;7.232;2023-05-10T09:37:48;15.50;19.00
20174;DHT22;10246;50.620;7.232;2023-05-10T09:40:16;15.50;18.00
20174;DHT22;10246;50.620;7.232;2023-05-10T09:42:53;15.50;20.20
20174;DHT22;10246;50.620;7.232;2023-05-10T09:45:26;15.60;18.10
20174;DHT22;10246;50.620;7.232;2023-05-10T09:47:55;15.50;20.30
20174;DHT22;10246;50.620;7.232;2023-05-10T09:50:24;15.50;20.90
20174;DHT22;10246;50.620;7.232;2023-05-10T09:52:52;15.60;19.60
20174;DHT22;10246;50.620;7.232;2023-05-10T09:55:20;15.70;20.00
20174;DHT22;10246;50.620;7.232;2023-05-10T09:57:59;15.80;21.10
20174;DHT22;10246;50.620;7.232;2023-05-10T10:00:26;15.90;21.40
20174;DHT22;10246;50.620;7.232;2023-05-10T10:02:59;16.00;19.70
20174;DHT22;10246;50.620;7.232;2023-05-10T10:05:30;16.10;18.80
20174;DHT22;10246;50.620;7.232;2023-05-10T10:07:58;16.10;19.60
20174;DHT22;10246;50.620;7.232;2023-05-10T10:10:25;16.20;18.80
20174;DHT22;10246;50.620;7.232;2023-05-10T10:12:51;16.20;19.10
20174;DHT22;10246;50.620;7.232;2023-05-10T10:15:21;16.30;18.20
20174;DHT22;10246;50.620;7.232;2023-05-10T10:17:48;16.30;18.40
20174;DHT22;10246;50.620;7.232;2023-05-10T10:20:18;16.40;19.10
20174;DHT22;10246;50.620;7.232;2023-05-10T10:22:45;16.50;18.50
20174;DHT22;10246;50.620;7.232;2023-05-10T10:25:15;16.60;16.60
20174;DHT22;10246;50.620;7.232;2023-05-10T10:27:48;16.60;16.60
20174;DHT22;10246;50.620;7.232;2023-05-10T10:30:25;16.60;16.70
20174;DHT22;10246;50.620;7.232;2023-05-10T10:33:19;16.60;16.70
20174;DHT22;10246;50.620;7.232;2023-05-10T10:35:53;16.60;15.60
20174;DHT22;10246;50.620;7.232;2023-05-10T10:38:20;16.60;16.60
20174;DHT22;10246;50.620;7.232;2023-05-10T10:40:48;16.60;14.70
20174;DHT22;10246;50.620;7.232;2023-05-10T10:43:23;16.70;15.70
20174;DHT22;10246;50.620;7.232;2023-05-10T10:46:21;16.80;16.80
20174;DHT22;10246;50.620;7.232;2023-05-10T10:48:49;16.90;14.40
20174;DHT22;10246;50.620;7.232;2023-05-10T10:51:18;16.90;10.90
20174;DHT22;10246;50.620;7.232;2023-05-10T10:53:47;16.90;10.50
20174;DHT22;10246;50.620;7.232;2023-05-10T10:56:14;16.90;12.80
20174;DHT22;10246;50.620;7.232;2023-05-10T10:58:42;17.00;13.80
20174;DHT22;10246;50.620;7.232;2023-05-10T11:01:16;17.00;12.60
20174;DHT22;10246;50.620;7.232;2023-05-10T11:06:38;17.20;13.20
20174;DHT22;10246;50.620;7.232;2023-05-10T11:09:06;17.20;14.30
20174;DHT22;10246;50.620;7.232;2023-05-10T11:11:34;17.20;12.40
20174;DHT22;10246;50.620;7.232;2023-05-10T11:14:03;17.20;12.70
20174;DHT22;10246;50.620;7.232;2023-05-10T11:16:41;17.10;10.80
20174;DHT22;10246;50.620;7.232;2023-05-10T11:19:10;17.10;11.30
20174;DHT22;10246;50.620;7.232;2023-05-10T11:21:46;17.00;11.20
20174;DHT22;10246;50.620;7.232;2023-05-10T11:24:16;17.00;13.10
20174;DHT22;10246;50.620;7.232;2023-05-10T11:26:50;17.10;11.80
20174;DHT22;10246;50.620;7.232;2023-05-10T11:29:17;17.10;10.40
20174;DHT22;10246;50.620;7.232;2023-05-10T11:31:44;17.10;8.40
20174;DHT22;10246;50.620;7.232;2023-05-10T11:34:22;17.10;10.40
20174;DHT22;10246;50.620;7.232;2023-05-10T11:36:53;17.20;9.40
20174;DHT22;10246;50.620;7.232;2023-05-10T11:39:20;17.30;9.30
20174;DHT22;10246;50.620;7.232;2023-05-10T11:41:48;17.20;10.40
20174;DHT22;10246;50.620;7.232;2023-05-10T11:44:15;17.30;8.80
20174;DHT22;10246;50.620;7.232;2023-05-10T11:46:42;17.40;6.40
20174;DHT22;10246;50.620;7.232;2023-05-10T11:49:10;17.40;7.40
20174;DHT22;10246;50.620;7.232;2023-05-10T11:51:38;17.40;6.80
20174;DHT22;10246;50.620;7.232;2023-05-10T11:54:11;17.30;8.00
20174;DHT22;10246;50.620;7.232;2023-05-10T11:56:42;17.30;9.10
20174;DHT22;10246;50.620;7.232;2023-05-10T11:59:08;17.40;6.80
20174;DHT22;10246;50.620;7.232;2023-05-10T12:01:36;17.30;10.30
20174;DHT22;10246;50.620;7.232;2023-05-10T12:04:03;17.30;12.90
20174;DHT22;10246;50.620;7.232;2023-05-10T12:06:31;17.40;13.40
20174;DHT22;10246;50.620;7.232;2023-05-10T12:08:58;17.50;12.50
20174;DHT22;10246;50.620;7.232;2023-05-10T12:11:28;17.60;11.60
20174;DHT22;10246;50.620;7.232;2023-05-10T12:13:55;17.80;8.40
20174;DHT22;10246;50.620;7.232;2023-05-10T12:16:24;17.80;11.00
20174;DHT22;10246;50.620;7.232;2023-05-10T12:18:51;17.90;10.90
20174;DHT22;10246;50.620;7.232;2023-05-10T12:21:19;18.10;8.70
20174;DHT22;10246;50.620;7.232;2023-05-10T12:23:46;18.00;3.80
20174;DHT22;10246;50.620;7.232;2023-05-10T12:26:14;17.90;5.80
20174;DHT22;10246;50.620;7.232;2023-05-10T12:28:42;17.90;7.50
20174;DHT22;10246;50.620;7.232;2023-05-10T12:31:09;17.90;4.80
20174;DHT22;10246;50.620;7.232;2023-05-10T12:33:37;17.90;3.40
20174;DHT22;10246;50.620;7.232;2023-05-10T12:36:07;17.80;3.60
20174;DHT22;10246;50.620;7.232;2023-05-10T12:38:36;17.70;6.90
20174;DHT22;10246;50.620;7.232;2023-05-10T12:41:05;17.70;8.10
20174;DHT22;10246;50.620;7.232;2023-05-10T12:43:33;17.70;10.90
20174;DHT22;10246;50.620;7.232;2023-05-10T12:46:08;17.70;11.20
20174;DHT22;10246;50.620;7.232;2023-05-10T12:48:40;17.60;11.40
20174;DHT22;10246;50.620;7.232;2023-05-10T12:51:10;17.60;6.40
20174;DHT22;10246;50.620;7.232;2023-05-10T12:53:43;17.40;8.30
20174;DHT22;10246;50.620;7.232;2023-05-10T12:56:11;17.30;11.60
20174;DHT22;10246;50.620;7.232;2023-05-10T12:58:46;17.30;13.00
20174;DHT22;10246;50.620;7.232;2023-05-10T13:01:19;17.30;11.80
20174;DHT22;10246;50.620;7.232;2023-05-10T13:03:51;17.30;13.10
20174;DHT22;10246;50.620;7.232;2023-05-10T13:06:18;17.50;9.10
20174;DHT22;10246;50.620;7.232;2023-05-10T13:08:52;17.40;13.10
20174;DHT22;10246;50.620;7.232;2023-05-10T13:11:19;17.50;10.40
20174;DHT22;10246;50.620;7.232;2023-05-10T13:13:49;17.60;7.00
20174;DHT22;10246;50.620;7.232;2023-05-10T13:16:18;17.50;5.80
20174;DHT22;10246;50.620;7.232;2023-05-10T13:18:45;17.50;10.20
20174;DHT22;10246;50.620;7.232;2023-05-10T13:21:15;17.60;9.60
20174;DHT22;10246;50.620;7.232;2023-05-10T13:23:53;17.70;10.50
20174;DHT22;10246;50.620;7.232;2023-05-10T13:26:20;17.80;10.60
20174;DHT22;10246;50.620;7.232;2023-05-10T13:28:47;17.80;11.50
20174;DHT22;10246;50.620;7.232;2023-05-10T13:31:19;17.80;10.10
20174;DHT22;10246;50.620;7.232;2023-05-10T13:33:46;17.80;9.50
20174;DHT22;10246;50.620;7.232;2023-05-10T13:36:12;17.80;10.10
20174;DHT22;10246;50.620;7.232;2023-05-10T13:38:39;17.80;9.40
20174;DHT22;10246;50.620;7.232;2023-05-10T13:41:06;17.80;8.70
20174;DHT22;10246;50.620;7.232;2023-05-10T13:43:33;17.70;9.00
20174;DHT22;10246;50.620;7.232;2023-05-10T13:46:02;17.60;11.20
20174;DHT22;10246;50.620;7.232;2023-05-10T13:48:33;17.50;10.30
20174;DHT22;10246;50.620;7.232;2023-05-10T13:51:03;17.30;11.70
20174;DHT22;10246;50.620;7.232;2023-05-10T13:53:36;17.20;13.10
20174;DHT22;10246;50.620;7.232;2023-05-10T13:56:03;17.10;14.80
20174;DHT22;10246;50.620;7.232;2023-05-10T13:58:39;17.00;16.90
20174;DHT22;10246;50.620;7.232;2023-05-10T14:01:09;16.90;16.80
20174;DHT22;10246;50.620;7.232;2023-05-10T14:03:50;16.60;16.60
20174;DHT22;10246;50.620;7.232;2023-05-10T14:06:17;16.50;16.60
20174;DHT22;10246;50.620;7.232;2023-05-10T14:08:47;16.40;16.50
20174;DHT22;10246;50.620;7.232;2023-05-10T14:11:16;16.40;17.30
20174;DHT22;10246;50.620;7.232;2023-05-10T14:13:58;16.20;16.50
20174;DHT22;10246;50.620;7.232;2023-05-10T14:16:28;16.10;19.30
20174;DHT22;10246;50.620;7.232;2023-05-10T14:18:56;16.10;20.30
20174;DHT22;10246;50.620;7.232;2023-05-10T14:21:30;16.10;21.40
20174;DHT22;10246;50.620;7.232;2023-05-10T14:23:57;16.00;21.80
20174;DHT22;10246;50.620;7.232;2023-05-10T14:26:24;15.90;20.80
20174;DHT22;10246;50.620;7.232;2023-05-10T14:28:53;15.80;18.10
20174;DHT22;10246;50.620;7.232;2023-05-10T14:31:20;15.70;16.00
20174;DHT22;10246;50.620;7.232;2023-05-10T14:33:51;15.70;17.00
20174;DHT22;10246;50.620;7.232;2023-05-10T14:36:26;15.70;19.20
20174;DHT22;10246;50.620;7.232;2023-05-10T14:38:58;15.80;19.30
20174;DHT22;10246;50.620;7.232;2023-05-10T14:41:25;15.80;20.10
20174;DHT22;10246;50.620;7.232;2023-05-10T14:43:53;16.00;19.70
20174;DHT22;10246;50.620;7.232;2023-05-10T14:46:21;16.10;19.40
20174;DHT22;10246;50.620;7.232;2023-05-10T14:48:49;16.20;19.20
20174;DHT22;10246;50.620;7.232;2023-05-10T14:51:16;16.20;18.50
20174;DHT22;10246;50.620;7.232;2023-05-10T14:53:48;16.30;20.00
20174;DHT22;10246;50.620;7.232;2023-05-10T14:56:15;16.30;20.90
20174;DHT22;10246;50.620;7.232;2023-05-10T14:58:49;16.30;18.40
20174;DHT22;10246;50.620;7.232;2023-05-10T15:01:15;16.30;18.50
20174;DHT22;10246;50.620;7.232;2023-05-10T15:03:43;16.20;18.60
20174;DHT22;10246;50.620;7.232;2023-05-10T15:06:10;16.30;18.80
20174;DHT22;10246;50.620;7.232;2023-05-10T15:08:37;16.30;17.70
20174;DHT22;10246;50.620;7.232;2023-05-10T15:11:05;16.30;17.70
20174;DHT22;10246;50.620;7.232;2023-05-10T15:13:32;16.30;18.20
20174;DHT22;10246;50.620;7.232;2023-05-10T15:15:59;16.30;13.20
20174;DHT22;10246;50.620;7.232;2023-05-10T15:18:26;16.30;13.20
20174;DHT22;10246;50.620;7.232;2023-05-10T15:20:53;16.30;12.20
20174;DHT22;10246;50.620;7.232;2023-05-10T15:23:20;16.30;11.60
20174;DHT22;10246;50.620;7.232;2023-05-10T15:25:48;16.30;13.40
20174;DHT22;10246;50.620;7.232;2023-05-10T15:28:17;16.40;14.20
20174;DHT22;10246;50.620;7.232;2023-05-10T15:30:53;16.40;12.60
20174;DHT22;10246;50.620;7.232;2023-05-10T15:33:23;16.40;13.80
20174;DHT22;10246;50.620;7.232;2023-05-10T15:35:54;16.30;11.90
20174;DHT22;10246;50.620;7.232;2023-05-10T15:38:23;16.30;14.00
20174;DHT22;10246;50.620;7.232;2023-05-10T15:40:55;16.30;12.80
20174;DHT22;10246;50.620;7.232;2023-05-10T15:43:24;16.40;12.70
20174;DHT22;10246;50.620;7.232;2023-05-10T15:45:52;16.40;13.70
20174;DHT22;10246;50.620;7.232;2023-05-10T15:48:19;16.50;12.80
20174;DHT22;10246;50.620;7.232;2023-05-10T15:50:47;16.50;12.60
20174;DHT22;10246;50.620;7.232;2023-05-10T15:53:14;16.50;13.00
20174;DHT22;10246;50.620;7.232;2023-05-10T15:55:43;16.40;12.30
20174;DHT22;10246;50.620;7.232;2023-05-10T15:58:10;16.40;12.70
20174;DHT22;10246;50.620;7.232;2023-05-10T16:00:39;16.40;14.90
20174;DHT22;10246;50.620;7.232;2023-05-10T16:03:06;16.40;13.50
20174;DHT22;10246;50.620;7.232;2023-05-10T16:05:33;16.50;14.90